Time;durP1;ratioP1;P1;durP2;ratioP2;P2;SDS_P1;SDS_P2;PMS_P1;PMS_P2;Temp;Humidity;BMP_temperature;BMP_pressure;BME280_temperature;BME280_humidity;BME280_pressure;Samples;Min_cycle;Max_cycle;Signal;HPM_P1;HPM_P2
2021/03/10 00:01:02;;;;;;;0.70;0.60;;;4.40;99.90;;;4.81;100.00;-20813.19;5053058;28;20579;-73
2021/03/10 00:03:29;;;;;;;0.70;0.60;;;4.30;99.90;;;4.79;100.00;-20812.50;5052490;28;20225;-74
2021/03/10 00:05:57;;;;;;;0.70;0.60;;;4.30;99.90;;;4.76;100.00;-20811.78;5051499;28;20186;-73
2021/03/10 00:08:24;;;;;;;0.70;0.60;;;4.30;99.90;;;4.76;100.00;-20811.66;5066288;28;20204;-73
2021/03/10 00:10:50;;;;;;;0.70;0.60;;;4.30;99.90;;;4.74;100.00;-20811.22;5053054;28;20299;-72
2021/03/10 00:13:18;;;;;;;0.70;0.60;;;4.30;99.90;;;4.73;100.00;-20810.94;5050702;28;20182;-73
2021/03/10 00:15:46;;;;;;;0.70;0.60;;;4.20;99.90;;;4.72;100.00;-20810.53;5049821;28;20190;-73
2021/03/10 00:18:15;;;;;;;1.02;0.93;;;4.30;99.90;;;4.74;100.00;-20811.09;5053037;28;20209;-73
2021/03/10 00:20:42;;;;;;;0.70;0.60;;;4.30;99.90;;;4.72;100.00;-20810.69;5051590;28;20223;-73
2021/03/10 00:23:09;;;;;;;0.70;0.60;;;4.30;99.90;;;4.72;100.00;-20810.53;5049556;28;21171;-73
2021/03/10 00:25:36;;;;;;;0.70;0.60;;;4.30;99.90;;;4.70;100.00;-20810.13;5038041;28;20284;-73
2021/03/10 00:28:03;;;;;;;0.70;0.60;;;4.20;99.90;;;4.67;100.00;-20809.13;5032994;28;20432;-73
2021/03/10 00:30:30;;;;;;;0.70;0.60;;;4.20;99.90;;;4.64;100.00;-20808.44;5035293;28;20877;-73
2021/03/10 00:32:58;;;;;;;0.70;0.60;;;4.20;99.90;;;4.55;100.00;-20805.94;5052339;28;20212;-72
2021/03/10 00:35:29;;;;;;;0.70;0.60;;;4.10;99.90;;;4.50;100.00;-20804.53;5041466;28;20232;-73
2021/03/10 00:37:58;;;;;;;0.70;0.60;;;4.10;99.90;;;4.47;100.00;-20803.84;5037581;28;20193;-72
2021/03/10 00:40:26;;;;;;;0.70;0.60;;;4.10;99.90;;;4.41;100.00;-20802.03;5056498;28;20178;-73
2021/03/10 00:42:53;;;;;;;0.70;0.60;;;4.00;99.90;;;4.46;100.00;-20803.44;5047381;28;20297;-73
2021/03/10 00:45:20;;;;;;;0.70;0.60;;;4.00;99.90;;;4.53;100.00;-20805.53;5045019;28;20198;-73
2021/03/10 00:47:47;;;;;;;1.10;1.00;;;4.10;99.90;;;4.57;100.00;-20806.50;5052838;28;20654;-72
2021/03/10 00:50:18;;;;;;;0.70;0.50;;;4.10;99.90;;;4.56;100.00;-20806.22;5055869;28;20208;-73
2021/03/10 00:52:45;;;;;;;0.70;0.60;;;4.10;99.90;;;4.58;100.00;-20806.78;5054198;28;20569;-73
2021/03/10 00:55:13;;;;;;;0.70;0.60;;;4.10;99.90;;;4.54;100.00;-20805.81;5049744;28;20289;-75
2021/03/10 00:57:40;;;;;;;0.70;0.52;;;4.10;99.90;;;4.46;100.00;-20803.44;5054976;28;20201;-75
2021/03/10 01:00:08;;;;;;;0.70;0.60;;;4.10;99.90;;;4.39;100.00;-20801.63;5055404;28;20272;-74
2021/03/10 01:02:35;;;;;;;0.70;0.60;;;4.00;99.90;;;4.32;100.00;-20799.81;5056033;28;20205;-74
2021/03/10 01:05:03;;;;;;;0.70;0.60;;;4.10;99.90;;;4.30;100.00;-20799.13;5055589;28;20194;-74
2021/03/10 01:07:31;;;;;;;0.70;0.50;;;4.10;99.90;;;4.30;100.00;-20799.13;5046528;28;20195;-72
2021/03/10 01:09:58;;;;;;;0.70;0.60;;;4.00;99.90;;;4.22;100.00;-20796.88;5054461;28;20367;-73
2021/03/10 01:12:26;;;;;;;0.70;0.65;;;3.90;99.90;;;4.23;100.00;-20797.31;5055226;28;20193;-73
2021/03/10 01:14:52;;;;;;;0.60;0.60;;;4.00;99.90;;;4.21;100.00;-20796.75;5054976;28;20189;-72
2021/03/10 01:17:20;;;;;;;0.70;0.60;;;3.90;99.90;;;4.13;100.00;-20794.50;5054982;28;20189;-72
2021/03/10 01:19:48;;;;;;;0.70;0.60;;;3.90;99.90;;;4.01;100.00;-20791.31;5055391;28;20608;-73
2021/03/10 01:22:19;;;;;;;1.23;1.13;;;3.80;99.90;;;3.95;100.00;-20789.63;5054535;28;20216;-73
2021/03/10 01:24:47;;;;;;;0.70;0.65;;;3.80;99.90;;;3.87;100.00;-20787.53;5053314;28;20210;-70
2021/03/10 01:27:17;;;;;;;0.68;0.60;;;3.70;99.90;;;3.79;100.00;-20785.31;5040854;28;20239;-72
2021/03/10 01:29:45;;;;;;;0.70;0.60;;;3.50;99.90;;;3.75;100.00;-20784.19;5054117;28;20188;-73
2021/03/10 01:32:13;;;;;;;0.70;0.60;;;3.50;99.90;;;3.79;100.00;-20785.19;5054412;28;20190;-73
2021/03/10 01:34:40;;;;;;;0.70;0.60;;;3.50;99.90;;;3.84;100.00;-20786.56;5054951;28;20237;-73
2021/03/10 01:37:08;;;;;;;0.70;0.60;;;3.50;99.90;;;3.88;100.00;-20787.81;5047762;28;20277;-73
2021/03/10 01:39:36;;;;;;;0.70;0.70;;;3.50;99.90;;;3.96;100.00;-20789.91;5052307;28;20228;-73
2021/03/10 01:42:05;;;;;;;0.70;0.60;;;3.60;99.90;;;3.99;100.00;-20790.63;5054783;28;20209;-73
2021/03/10 01:44:33;;;;;;;0.70;0.60;;;3.60;99.90;;;4.05;100.00;-20792.28;5069649;28;20702;-73
2021/03/10 01:47:02;;;;;;;0.70;0.60;;;3.60;99.90;;;4.07;100.00;-20792.97;5036733;28;20611;-73
2021/03/10 01:49:29;;;;;;;0.70;0.60;;;3.70;99.90;;;4.09;100.00;-20793.41;5053893;28;20240;-73
2021/03/10 01:51:57;;;;;;;0.70;0.60;;;3.70;99.90;;;4.13;100.00;-20794.50;5054844;28;20174;-73
2021/03/10 01:54:25;;;;;;;0.70;0.60;;;3.70;99.90;;;4.15;100.00;-20794.94;5052585;28;20186;-72
2021/03/10 01:56:52;;;;;;;0.70;0.60;;;3.70;99.90;;;4.19;100.00;-20796.19;5035945;28;20186;-72
2021/03/10 01:59:21;;;;;;;0.70;0.60;;;3.70;99.90;;;4.18;100.00;-20795.91;5049099;28;20200;-73
2021/03/10 02:01:48;;;;;;;0.70;0.60;;;3.80;99.90;;;4.19;100.00;-20796.03;5055040;28;20193;-73
2021/03/10 02:04:17;;;;;;;0.70;0.60;;;3.80;99.90;;;4.16;100.00;-20795.22;5050909;28;20209;-73
2021/03/10 02:06:59;;;;;;;0.70;0.60;;;3.70;99.90;;;4.17;100.00;-20795.63;5052815;28;20211;-74
2021/03/10 02:09:42;;;;;;;0.70;0.60;;;3.70;99.90;;;4.14;100.00;-20794.66;5052898;28;20211;-74
2021/03/10 02:12:23;;;;;;;0.70;0.55;;;3.70;99.90;;;4.14;100.00;-20794.66;5052643;28;20173;-74
2021/03/10 02:14:58;;;;;;;0.70;0.50;;;3.70;99.90;;;4.10;100.00;-20793.81;5053251;28;20235;-74
2021/03/10 02:17:32;;;;;;;0.70;0.60;;;3.70;99.90;;;4.04;100.00;-20792.00;5054096;28;20185;-72
2021/03/10 02:20:27;;;;;;;0.70;0.50;;;3.70;99.90;;;4.01;100.00;-20791.31;5052572;28;20548;-74
2021/03/10 02:23:30;;;;;;;0.70;0.60;;;3.60;99.90;;;4.00;100.00;-20791.03;5050584;28;20295;-74
2021/03/10 02:26:33;;;;;;;0.70;0.60;;;3.60;99.90;;;3.98;100.00;-20790.47;5045153;28;20224;-74
2021/03/10 02:29:06;;;;;;;0.70;0.60;;;3.60;99.90;;;4.01;100.00;-20791.31;5039846;28;20201;-75
2021/03/10 02:31:39;;;;;;;0.70;0.60;;;3.60;99.90;;;4.02;100.00;-20791.44;5069777;28;20668;-74
2021/03/10 02:34:08;;;;;;;0.70;0.60;;;3.60;99.90;;;4.03;100.00;-20791.72;5053554;28;20800;-74
2021/03/10 02:36:56;;;;;;;0.70;0.57;;;3.60;99.90;;;4.06;100.00;-20792.56;5052885;28;20181;-74
2021/03/10 02:39:24;;;;;;;0.70;0.50;;;3.60;99.90;;;4.09;100.00;-20793.41;5051527;28;20271;-74
2021/03/10 02:41:53;;;;;;;0.68;0.50;;;3.60;99.90;;;4.11;100.00;-20793.97;5054280;28;20277;-74
2021/03/10 02:44:22;;;;;;;0.70;0.60;;;3.60;99.90;;;4.13;100.00;-20794.50;5049721;28;20201;-74
2021/03/10 02:46:49;;;;;;;0.70;0.50;;;3.70;99.90;;;4.16;100.00;-20795.34;5053014;28;20185;-74
2021/03/10 02:49:18;;;;;;;0.70;0.60;;;3.70;99.90;;;4.21;100.00;-20796.75;5042916;28;20202;-74
2021/03/10 02:51:47;;;;;;;0.73;0.70;;;3.70;99.90;;;4.26;100.00;-20798.00;5032600;28;20589;-74
2021/03/10 02:54:17;;;;;;;0.70;0.60;;;3.80;99.90;;;4.29;100.00;-20798.84;5050587;28;20280;-74
2021/03/10 02:56:45;;;;;;;0.70;0.60;;;3.80;99.90;;;4.29;100.00;-20798.97;5049186;28;20717;-74
2021/03/10 02:59:34;;;;;;;0.70;0.50;;;3.80;99.90;;;4.30;100.00;-20799.13;5033977;28;20193;-74
2021/03/10 03:02:01;;;;;;;0.70;0.60;;;3.80;99.90;;;4.30;100.00;-20799.25;5040937;28;20196;-74
2021/03/10 03:04:28;;;;;;;0.70;0.57;;;3.80;99.90;;;4.32;100.00;-20799.66;5034912;28;20694;-74
2021/03/10 03:07:14;;;;;;;0.70;0.50;;;3.90;99.90;;;4.33;100.00;-20799.94;5052903;28;20201;-72
2021/03/10 03:09:41;;;;;;;0.70;0.60;;;3.80;99.90;;;4.28;100.00;-20798.69;5053499;28;20212;-74
2021/03/10 03:12:12;;;;;;;0.98;0.98;;;3.80;99.90;;;4.25;100.00;-20797.84;5051886;28;20186;-75
2021/03/10 03:14:42;;;;;;;0.70;0.60;;;3.80;99.90;;;4.20;100.00;-20796.47;5053477;28;20181;-74
2021/03/10 03:17:10;;;;;;;0.60;0.50;;;3.80;99.90;;;4.12;100.00;-20794.22;5053440;28;20180;-74
2021/03/10 03:19:38;;;;;;;0.70;0.60;;;3.70;99.90;;;4.13;100.00;-20794.38;5052042;28;20226;-75
2021/03/10 03:22:06;;;;;;;0.70;0.60;;;3.70;99.90;;;4.14;100.00;-20794.78;5052088;28;20568;-74
2021/03/10 03:24:34;;;;;;;0.70;0.60;;;3.70;99.90;;;4.22;100.00;-20797.03;5053029;28;20594;-73
2021/03/10 03:27:02;;;;;;;0.68;0.50;;;3.90;99.90;;;4.15;100.00;-20795.06;5046147;28;20324;-74
2021/03/10 03:29:31;;;;;;;0.70;0.60;;;3.80;99.90;;;4.15;100.00;-20795.06;5050923;28;20190;-73
2021/03/10 03:31:59;;;;;;;0.70;0.60;;;3.80;99.90;;;4.16;100.00;-20795.34;5052117;28;20190;-74
2021/03/10 03:34:27;;;;;;;0.70;0.60;;;3.70;99.90;;;4.12;100.00;-20794.22;5053402;28;20314;-72
2021/03/10 03:36:55;;;;;;;0.70;0.60;;;3.70;99.90;;;4.13;100.00;-20794.50;5051770;28;20202;-73
2021/03/10 03:39:22;;;;;;;0.63;0.60;;;3.70;99.90;;;4.09;100.00;-20793.41;5045994;28;20202;-72
2021/03/10 03:41:50;;;;;;;0.70;0.60;;;3.70;99.90;;;4.26;100.00;-20798.13;5040762;28;20228;-73
2021/03/10 03:44:18;;;;;;;0.70;0.60;;;3.80;99.90;;;4.29;100.00;-20798.97;5036497;28;20228;-73
2021/03/10 03:46:46;;;;;;;0.70;0.60;;;3.90;99.90;;;4.25;100.00;-20797.84;5053201;28;20735;-73
2021/03/10 03:49:15;;;;;;;1.52;0.90;;;3.90;99.90;;;4.06;100.00;-20792.56;5051490;28;20225;-72
2021/03/10 03:51:42;;;;;;;0.70;0.60;;;3.80;99.90;;;3.88;100.00;-20787.81;5051873;28;20205;-74
2021/03/10 03:54:10;;;;;;;0.70;0.60;;;3.60;99.90;;;3.84;100.00;-20786.56;5051750;28;20195;-73
2021/03/10 03:56:37;;;;;;;0.70;0.60;;;3.60;99.90;;;3.77;100.00;-20784.63;5036125;28;20654;-73
2021/03/10 03:59:05;;;;;;;0.70;0.60;;;3.60;99.90;;;3.65;100.00;-20781.41;5043843;28;20194;-73
2021/03/10 04:01:32;;;;;;;0.70;0.60;;;3.50;99.90;;;3.64;100.00;-20781.13;5044505;28;20221;-73
2021/03/10 04:03:59;;;;;;;0.70;0.60;;;3.60;99.90;;;3.62;100.00;-20780.72;5052825;28;20244;-73
2021/03/10 04:06:27;;;;;;;0.70;0.60;;;3.60;99.90;;;3.55;100.00;-20778.63;5051652;28;20202;-73
2021/03/10 04:08:54;;;;;;;0.70;0.60;;;3.50;99.90;;;3.55;100.00;-20778.75;5047186;28;20520;-73
2021/03/10 04:11:22;;;;;;;0.70;0.60;;;3.50;99.90;;;3.59;100.00;-20779.88;5053105;28;20550;-73
2021/03/10 04:13:49;;;;;;;0.70;0.60;;;3.50;99.90;;;3.66;100.00;-20781.69;5055929;28;20674;-73
2021/03/10 04:16:16;;;;;;;0.70;0.60;;;3.50;99.90;;;3.69;100.00;-20782.53;5057244;28;20185;-72
2021/03/10 04:18:44;;;;;;;1.17;1.08;;;3.50;99.90;;;3.73;100.00;-20783.66;5055199;28;20213;-73
2021/03/10 04:21:11;;;;;;;0.70;0.60;;;3.50;99.90;;;3.68;100.00;-20782.09;5055117;28;20197;-72
2021/03/10 04:23:39;;;;;;;0.70;0.60;;;3.50;99.90;;;3.69;100.00;-20782.53;5055875;28;20221;-74
2021/03/10 04:26:06;;;;;;;0.70;0.60;;;3.50;99.90;;;3.65;100.00;-20781.41;5054461;28;20193;-73
2021/03/10 04:28:33;;;;;;;0.70;0.60;;;3.50;99.90;;;3.60;100.00;-20780.16;5051209;28;20207;-73
2021/03/10 04:31:00;;;;;;;0.70;0.60;;;3.40;99.90;;;3.54;100.00;-20778.34;5047721;28;20607;-72
2021/03/10 04:33:27;;;;;;;0.70;0.60;;;3.40;99.90;;;3.50;100.00;-20777.22;5048582;28;20205;-73
2021/03/10 04:35:54;;;;;;;0.70;0.60;;;3.20;99.90;;;3.45;100.00;-20775.84;5035070;28;20190;-73
2021/03/10 04:38:28;;;;;;;0.70;0.60;;;3.20;99.90;;;3.52;100.00;-20777.78;5045429;28;20200;-72
2021/03/10 04:40:58;;;;;;;0.70;0.60;;;3.10;99.90;;;3.66;100.00;-20781.56;5056347;28;20715;-73
2021/03/10 04:43:25;;;;;;;0.70;0.70;;;3.20;99.90;;;3.69;100.00;-20782.53;5056215;28;20264;-73
2021/03/10 04:45:52;;;;;;;0.70;0.60;;;3.30;99.90;;;3.75;100.00;-20784.19;5056242;28;20178;-73
2021/03/10 04:48:20;;;;;;;0.70;0.60;;;3.40;99.90;;;3.78;100.00;-20784.91;5054227;28;20222;-73
2021/03/10 04:50:47;;;;;;;0.70;0.60;;;3.40;99.90;;;3.91;100.00;-20788.38;5056078;28;20216;-71
2021/03/10 04:53:14;;;;;;;0.60;0.50;;;3.50;99.90;;;4.00;100.00;-20790.88;5055282;28;20192;-73
2021/03/10 04:55:41;;;;;;;0.70;0.70;;;3.60;99.90;;;4.12;100.00;-20794.22;5054530;28;20255;-73
2021/03/10 04:58:11;;;;;;;0.70;0.60;;;3.70;99.90;;;4.13;100.00;-20794.38;5053352;28;20281;-73
2021/03/10 05:00:38;;;;;;;0.70;0.50;;;3.70;99.90;;;4.14;100.00;-20794.78;5052017;28;20217;-73
2021/03/10 05:03:05;;;;;;;0.70;0.60;;;3.70;99.90;;;4.27;100.00;-20798.41;5028577;28;20218;-73
2021/03/10 05:05:32;;;;;;;0.60;0.60;;;3.80;99.90;;;4.32;100.00;-20799.81;5035745;28;20670;-73
2021/03/10 05:07:59;;;;;;;0.70;0.60;;;3.80;99.90;;;4.39;100.00;-20801.47;5052193;28;20613;-73
2021/03/10 05:10:26;;;;;;;0.70;0.70;;;3.90;99.90;;;4.48;100.00;-20804.00;5055683;28;20186;-72
2021/03/10 05:12:53;;;;;;;0.70;0.50;;;4.00;99.90;;;4.58;100.00;-20806.78;5055409;28;20174;-73
2021/03/10 05:15:22;;;;;;;0.70;0.70;;;4.00;99.90;;;4.65;100.00;-20808.72;5054386;28;20557;-73
2021/03/10 05:17:50;;;;;;;0.70;0.60;;;4.10;99.90;;;4.74;100.00;-20811.22;5048645;28;20201;-74
2021/03/10 05:20:17;;;;;;;0.70;0.60;;;4.10;99.90;;;4.74;100.00;-20811.22;5036037;28;20194;-74
2021/03/10 05:22:43;;;;;;;0.70;0.60;;;4.20;99.90;;;4.74;100.00;-20811.09;5047067;28;20224;-72
2021/03/10 05:25:12;;;;;;;0.70;0.50;;;4.20;99.90;;;4.80;100.00;-20812.75;5052998;28;20214;-73
2021/03/10 05:27:40;;;;;;;0.70;0.70;;;4.20;99.90;;;4.82;100.00;-20813.47;5051494;28;20201;-73
2021/03/10 05:30:09;;;;;;;0.70;0.60;;;4.20;99.90;;;4.79;100.00;-20812.63;5035542;28;20190;-73
2021/03/10 05:32:38;;;;;;;0.70;0.60;;;4.20;99.90;;;4.83;100.00;-20813.75;5035961;28;20181;-73
2021/03/10 05:35:07;;;;;;;0.70;0.60;;;4.30;99.90;;;4.91;100.00;-20815.81;5054251;28;20194;-73
2021/03/10 05:37:38;;;;;;;0.70;0.60;;;4.30;99.90;;;4.94;100.00;-20816.53;5053115;28;20196;-73
2021/03/10 05:40:07;;;;;;;0.70;0.60;;;4.30;99.90;;;4.93;100.00;-20816.38;5054749;28;20190;-73
2021/03/10 05:42:39;;;;;;;0.70;0.60;;;4.40;99.90;;;4.98;100.00;-20817.63;5052675;28;20204;-73
2021/03/10 05:45:08;;;;;;;0.68;0.60;;;4.40;99.90;;;4.95;100.00;-20816.81;5055884;28;20193;-73
2021/03/10 05:47:35;;;;;;;0.70;0.60;;;4.40;99.90;;;4.94;100.00;-20816.53;5052706;28;20196;-73
2021/03/10 05:50:06;;;;;;;0.70;0.60;;;4.40;99.90;;;4.94;100.00;-20816.53;5035385;28;20186;-73
2021/03/10 05:52:38;;;;;;;0.70;0.70;;;4.40;99.90;;;4.99;100.00;-20818.06;5036534;28;20225;-73
2021/03/10 05:55:08;;;;;;;0.70;0.60;;;4.40;99.90;;;5.06;100.00;-20820.00;5059342;28;20226;-73
2021/03/10 05:57:36;;;;;;;2.37;1.70;;;4.50;99.90;;;5.07;100.00;-20820.28;5069948;28;20204;-73
2021/03/10 06:00:09;;;;;;;0.70;0.60;;;4.50;99.90;;;5.10;100.00;-20820.97;5054591;28;20477;-72
2021/03/10 06:02:37;;;;;;;0.70;0.70;;;4.50;99.90;;;5.20;100.00;-20823.75;5034782;28;20413;-73
2021/03/10 06:05:18;;;;;;;0.80;0.80;;;4.60;99.90;;;5.23;100.00;-20824.59;5034864;28;20290;-73
2021/03/10 06:07:45;;;;;;;0.75;0.75;;;4.60;99.90;;;5.24;100.00;-20824.88;5038951;28;20451;-73
2021/03/10 06:10:14;;;;;;;0.70;0.60;;;4.60;99.90;;;5.22;100.00;-20824.31;5054650;28;20213;-75
2021/03/10 06:12:43;;;;;;;0.70;0.60;;;4.60;99.90;;;5.22;100.00;-20824.19;5054516;28;20179;-73
2021/03/10 06:15:14;;;;;;;0.70;0.60;;;4.70;99.90;;;5.25;100.00;-20825.16;5054684;28;20408;-72
2021/03/10 06:17:48;;;;;;;0.70;0.60;;;4.70;99.90;;;5.33;100.00;-20827.25;5052155;28;20480;-70
2021/03/10 06:20:27;;;;;;;0.70;0.60;;;4.70;99.90;;;5.42;100.00;-20829.75;5052999;28;20635;-73
2021/03/10 06:22:55;;;;;;;0.70;0.50;;;4.80;99.90;;;5.37;100.00;-20828.22;5052110;28;20447;-74
2021/03/10 06:25:23;;;;;;;0.67;0.60;;;4.80;99.90;;;5.40;100.00;-20829.06;5054098;28;20525;-74
2021/03/10 06:27:54;;;;;;;0.70;0.60;;;4.80;99.90;;;5.51;100.00;-20832.13;5038835;28;20450;-73
2021/03/10 06:30:37;;;;;;;0.80;0.80;;;4.90;99.90;;;5.40;100.00;-20829.19;5046987;28;20767;-73
2021/03/10 06:33:06;;;;;;;0.70;0.60;;;4.90;99.90;;;5.48;100.00;-20831.41;5046757;28;20225;-73
2021/03/10 06:35:35;;;;;;;0.70;0.60;;;4.90;99.90;;;5.61;100.00;-20834.91;5049274;28;20426;-73
2021/03/10 06:38:10;;;;;;;0.70;0.60;;;4.90;99.90;;;5.47;100.00;-20831.00;5052576;28;20527;-73
2021/03/10 06:40:52;;;;;;;0.67;0.60;;;4.90;99.90;;;5.61;100.00;-20834.91;5054455;28;20408;-73
2021/03/10 06:43:21;;;;;;;0.70;0.60;;;4.90;99.90;;;5.58;100.00;-20834.19;5050428;28;20451;-71
2021/03/10 06:45:48;;;;;;;0.70;0.60;;;4.90;99.90;;;5.66;100.00;-20836.28;5047660;28;20502;-73
2021/03/10 06:48:20;;;;;;;0.70;0.60;;;5.00;99.90;;;5.75;100.00;-20838.78;5052193;28;20477;-74
2021/03/10 06:50:49;;;;;;;0.70;0.60;;;5.00;99.90;;;5.80;100.00;-20840.19;5049300;28;20432;-73
2021/03/10 06:53:16;;;;;;;0.70;0.60;;;5.00;99.90;;;5.80;100.00;-20840.19;5046968;28;20523;-73
2021/03/10 06:55:45;;;;;;;0.70;0.60;;;5.10;99.90;;;5.91;100.00;-20842.97;5045721;28;20213;-74
2021/03/10 06:58:23;;;;;;;0.70;0.60;;;5.10;99.90;;;6.07;100.00;-20847.41;5053268;28;20756;-73
2021/03/10 07:01:00;;;;;;;0.70;0.60;;;5.10;99.90;;;6.06;100.00;-20847.13;5049193;28;20486;-75
2021/03/10 07:03:30;;;;;;;0.70;0.50;;;5.20;99.90;;;6.08;100.00;-20847.69;5052263;28;20481;-73
2021/03/10 07:05:59;;;;;;;0.70;0.60;;;5.20;99.90;;;5.99;100.00;-20845.19;5051961;28;20948;-74
2021/03/10 07:08:27;;;;;;;0.70;0.60;;;5.20;99.90;;;6.31;100.00;-20853.81;5047231;28;20991;-73
2021/03/10 07:10:56;;;;;;;0.63;0.50;;;5.30;99.90;;;6.31;100.00;-20853.81;5050947;28;20455;-74
2021/03/10 07:13:24;;;;;;;0.70;0.50;;;5.30;99.90;;;6.15;100.00;-20849.50;5057536;28;20439;-78
2021/03/10 07:15:53;;;;;;;0.70;0.50;;;5.40;99.90;;;6.20;100.00;-20851.03;5051084;28;20439;-75
2021/03/10 07:18:22;;;;;;;0.70;0.60;;;5.40;99.90;;;6.18;100.00;-20850.47;5025993;28;20476;-74
2021/03/10 07:20:49;;;;;;;0.70;0.60;;;5.40;99.90;;;6.26;100.00;-20852.72;5045041;28;20435;-73
2021/03/10 07:23:20;;;;;;;0.70;0.60;;;5.50;99.90;;;6.54;100.00;-20860.34;5060395;28;20451;-76
2021/03/10 07:26:02;;;;;;;0.70;0.60;;;5.50;99.90;;;6.53;100.00;-20860.06;5058742;28;20808;-76
2021/03/10 07:28:31;;;;;;;0.70;0.60;;;5.50;99.90;;;6.58;100.00;-20861.31;5052891;28;20443;-75
2021/03/10 07:30:58;;;;;;;0.70;0.60;;;5.50;99.90;;;6.37;100.00;-20855.47;5051410;28;20432;-75
2021/03/10 07:33:25;;;;;;;0.70;0.50;;;5.50;99.90;;;6.60;100.00;-20861.88;5046742;28;20454;-75
2021/03/10 07:35:55;;;;;;;0.70;0.60;;;5.60;99.90;;;6.51;100.00;-20859.50;5045542;28;20437;-74
2021/03/10 07:38:25;;;;;;;1.50;1.40;;;5.60;99.90;;;6.62;100.00;-20862.44;5042479;28;20461;-74
2021/03/10 07:40:59;;;;;;;0.70;0.60;;;5.60;99.90;;;6.40;100.00;-20856.31;5042731;28;21114;-75
2021/03/10 07:43:38;;;;;;;0.70;0.60;;;5.60;99.90;;;6.52;100.00;-20859.66;5053776;28;20447;-75
2021/03/10 07:46:18;;;;;;;0.83;0.67;;;5.60;99.90;;;6.60;100.00;-20861.88;5049025;28;21157;-75
2021/03/10 07:48:46;;;;;;;0.70;0.60;;;5.70;99.90;;;6.57;100.00;-20861.03;5055244;28;20487;-75
2021/03/10 07:51:29;;;;;;;0.70;0.70;;;5.70;99.90;;;6.51;100.00;-20859.38;5037024;28;20467;-74
2021/03/10 07:53:58;;;;;;;0.70;0.70;;;5.80;99.90;;;6.63;100.00;-20862.72;5039153;28;20456;-75
2021/03/10 07:56:27;;;;;;;0.70;0.50;;;5.80;99.90;;;6.78;100.00;-20866.88;5057402;28;20435;-75
2021/03/10 07:59:07;;;;;;;0.70;0.60;;;5.80;99.90;;;6.83;100.00;-20868.00;5055573;28;20444;-74
2021/03/10 08:01:35;;;;;;;0.70;0.60;;;5.80;99.90;;;6.68;100.00;-20864.09;5054239;28;20474;-73
2021/03/10 08:04:14;;;;;;;0.87;0.80;;;5.80;99.90;;;6.76;100.00;-20866.31;5051942;28;20464;-74
2021/03/10 08:06:52;;;;;;;0.70;0.60;;;5.80;99.90;;;6.86;100.00;-20868.97;5043682;28;20442;-73
2021/03/10 08:09:24;;;;;;;0.70;0.60;;;5.90;99.90;;;6.75;100.00;-20866.03;5041613;28;20539;-74
2021/03/10 08:12:05;;;;;;;0.70;0.60;;;5.90;99.90;;;6.81;100.00;-20867.56;5057095;28;20445;-73
2021/03/10 08:14:38;;;;;;;0.70;0.60;;;5.90;99.90;;;6.92;100.00;-20870.50;5054185;28;20445;-74
2021/03/10 08:17:07;;;;;;;0.70;0.50;;;5.90;99.90;;;6.97;100.00;-20871.88;5043609;28;20529;-74
2021/03/10 08:19:36;;;;;;;0.70;0.60;;;5.90;99.90;;;6.86;100.00;-20868.97;5051775;28;21010;-73
2021/03/10 08:22:03;;;;;;;0.70;0.60;;;6.00;99.90;;;6.61;100.00;-20862.16;5048165;28;20439;-74
2021/03/10 08:24:35;;;;;;;0.70;0.60;;;6.00;99.90;;;6.87;100.00;-20869.09;5052789;28;20988;-74
2021/03/10 08:27:04;;;;;;;1.10;1.03;;;6.00;99.90;;;6.95;100.00;-20871.31;5055104;28;20435;-74
2021/03/10 08:29:34;;;;;;;0.70;0.53;;;6.00;99.90;;;6.99;100.00;-20872.44;5056938;28;20447;-75
2021/03/10 08:32:02;;;;;;;0.70;0.60;;;6.00;99.90;;;7.06;100.00;-20874.38;5055256;28;20439;-75
2021/03/10 08:34:36;;;;;;;0.70;0.60;;;6.10;99.90;;;7.13;100.00;-20876.19;5053980;28;20805;-75
2021/03/10 08:37:05;;;;;;;0.70;0.60;;;6.20;99.90;;;7.12;100.00;-20876.06;5055585;28;20752;-75
2021/03/10 08:39:33;;;;;;;0.70;0.50;;;6.30;99.90;;;7.34;100.00;-20881.88;5055268;28;20950;-73
2021/03/10 08:42:00;;;;;;;0.70;0.60;;;6.40;99.90;;;7.64;100.00;-20890.22;5057063;28;20416;-72
2021/03/10 08:44:39;;;;;;;0.70;0.50;;;6.50;99.90;;;7.60;100.00;-20889.09;5054725;28;20455;-75
2021/03/10 08:47:12;;;;;;;0.70;0.60;;;6.60;99.90;;;7.95;100.00;-20898.53;5056562;28;20482;-74
2021/03/10 08:49:39;;;;;;;0.70;0.60;;;6.70;99.90;;;8.16;100.00;-20904.38;5038362;28;20475;-74
2021/03/10 08:52:22;;;;;;;0.70;0.60;;;6.90;99.90;;;7.97;100.00;-20899.09;5041286;28;20482;-76
2021/03/10 08:54:58;;;;;;;0.70;0.60;;;6.90;99.90;;;8.05;100.00;-20901.31;5042112;28;20496;-73
2021/03/10 08:57:33;;;;;;;0.70;0.60;;;7.00;99.90;;;8.56;100.00;-20915.19;5078377;28;20423;-76
2021/03/10 09:00:06;;;;;;;0.90;0.90;;;7.00;99.90;;;8.73;100.00;-20919.63;5075596;28;20562;-75
2021/03/10 09:02:41;;;;;;;0.80;0.80;;;7.10;99.90;;;8.53;100.00;-20914.34;5026581;28;20930;-76
2021/03/10 09:05:16;;;;;;;0.70;0.57;;;7.20;99.90;;;8.77;100.00;-20920.75;5052360;28;20500;-74
2021/03/10 09:07:47;;;;;;;5.43;1.20;;;7.30;99.90;;;8.84;100.00;-20922.69;5047329;28;20471;-74
2021/03/10 09:10:27;;;;;;;0.70;0.60;;;7.30;99.90;;;8.83;100.00;-20922.53;5062990;28;20509;-76
2021/03/10 09:13:04;;;;;;;0.70;0.70;;;7.30;99.90;;;8.57;100.00;-20915.31;5038611;28;20469;-76
2021/03/10 09:15:32;;;;;;;0.70;0.60;;;7.40;99.90;;;8.58;100.00;-20915.59;5044743;28;20453;-74
2021/03/10 09:18:19;;;;;;;0.70;0.60;;;7.50;99.90;;;8.86;100.00;-20923.22;5023987;28;20461;-73
2021/03/10 09:20:49;;;;;;;1.37;1.27;;;7.60;99.90;;;9.07;100.00;-20929.06;5070494;28;20804;-74
2021/03/10 09:23:27;;;;;;;0.70;0.60;;;7.70;99.90;;;9.15;100.00;-20931.13;5049633;28;20455;-74
2021/03/10 09:26:02;;;;;;;0.70;0.70;;;7.70;99.90;;;9.09;100.00;-20929.59;5049012;28;20454;-75
2021/03/10 09:28:43;;;;;;;0.70;0.60;;;7.70;99.90;;;9.30;100.00;-20935.28;5054428;28;20445;-74
2021/03/10 09:31:31;;;;;;;0.70;0.60;;;7.90;99.90;;;9.19;100.00;-20932.38;5054434;28;20556;-73
2021/03/10 09:34:05;;;;;;;0.80;0.80;;;7.90;99.90;;;9.76;100.00;-20947.63;5053846;28;20456;-74
2021/03/10 09:36:43;;;;;;;0.90;0.90;;;7.80;99.90;;;9.46;100.00;-20939.56;5054872;28;20430;-74
2021/03/10 09:39:20;;;;;;;0.70;0.60;;;8.10;99.90;;;9.60;100.00;-20943.47;5040013;28;20448;-74
2021/03/10 09:41:55;;;;;;;4.40;1.47;;;8.10;99.90;;;9.89;100.00;-20951.22;5033711;28;20511;-74
2021/03/10 09:44:27;;;;;;;0.70;0.60;;;8.00;99.90;;;9.29;100.00;-20934.88;5036501;28;20543;-74
2021/03/10 09:46:58;;;;;;;0.70;0.60;;;8.00;99.90;;;9.44;100.00;-20939.16;5065617;28;20451;-74
2021/03/10 09:49:26;;;;;;;0.70;0.60;;;8.20;99.90;;;9.67;100.00;-20945.41;5050872;28;20473;-74
2021/03/10 09:51:54;;;;;;;0.70;0.70;;;8.30;99.90;;;10.32;100.00;-20962.97;5047360;28;20452;-75
2021/03/10 09:54:26;;;;;;;0.70;0.70;;;8.40;99.90;;;10.03;100.00;-20955.09;5039294;28;20484;-74
2021/03/10 09:56:59;;;;;;;0.70;0.70;;;8.50;99.90;;;10.38;100.00;-20964.50;5045733;28;20455;-77
2021/03/10 09:59:37;;;;;;;0.70;0.60;;;8.50;99.90;;;10.45;100.00;-20966.44;5037300;28;20454;-74
2021/03/10 10:02:15;;;;;;;0.80;0.80;;;8.50;99.90;;;10.77;100.00;-20975.03;5053343;28;20454;-74
2021/03/10 10:04:44;;;;;;;0.70;0.70;;;8.70;99.90;;;10.29;100.00;-20962.00;5052932;28;20860;-74
2021/03/10 10:07:12;;;;;;;0.70;0.70;;;8.90;99.90;;;10.84;100.00;-20976.94;5044021;28;20760;-74
2021/03/10 10:09:48;;;;;;;0.80;0.70;;;9.10;99.90;;;11.24;100.00;-20987.88;5033850;28;20452;-74
2021/03/10 10:12:25;;;;;;;0.70;0.63;;;9.00;99.90;;;10.93;100.00;-20979.44;5033043;28;20436;-74
2021/03/10 10:15:05;;;;;;;0.70;0.70;;;9.10;99.90;;;11.26;100.00;-20988.44;5041257;28;20879;-74
2021/03/10 10:17:35;;;;;;;0.70;0.70;;;9.00;99.90;;;11.29;100.00;-20989.13;5045248;28;20442;-74
2021/03/10 10:20:10;;;;;;;0.70;0.60;;;9.20;99.90;;;11.29;100.00;-20989.25;5034129;28;20489;-74
2021/03/10 10:22:39;;;;;;;0.70;0.60;;;9.40;99.90;;;11.29;100.00;-20989.13;5045195;28;22128;-74
2021/03/10 10:25:08;;;;;;;0.70;0.60;;;9.60;99.90;;;11.63;100.00;-20998.25;5053435;28;20531;-74
2021/03/10 10:27:39;;;;;;;1.43;1.33;;;9.80;99.90;;;12.03;100.00;-21009.28;5039267;28;20797;-74
2021/03/10 10:30:13;;;;;;;0.70;0.70;;;10.00;99.90;;;11.97;100.00;-21007.63;5041425;28;20786;-74
2021/03/10 10:32:42;;;;;;;0.80;0.70;;;9.90;99.90;;;12.03;100.00;-21009.28;5052635;28;21014;-74